createdAt,value
2018-12-25T00:00:21.448Z,0.00
2018-12-25T00:01:21.441Z,0.00
2018-12-25T00:02:21.427Z,0.00
2018-12-25T00:03:21.435Z,0.00
2018-12-25T00:04:21.399Z,0.00
2018-12-25T00:05:21.385Z,0.00
2018-12-25T00:06:21.383Z,0.00
2018-12-25T00:07:21.366Z,0.00
2018-12-25T00:08:21.384Z,0.00
2018-12-25T00:09:21.350Z,0.00
2018-12-25T00:10:21.335Z,0.00
2018-12-25T00:11:21.325Z,0.00
2018-12-25T00:12:21.325Z,0.00
2018-12-25T00:13:21.344Z,0.00
2018-12-25T00:14:21.300Z,0.00
2018-12-25T00:15:21.288Z,0.00
2018-12-25T00:16:21.272Z,0.00
2018-12-25T00:17:21.260Z,0.00
2018-12-25T00:18:21.253Z,0.00
2018-12-25T00:19:21.265Z,0.00
2018-12-25T00:20:21.238Z,0.00
2018-12-25T00:21:21.246Z,0.00
2018-12-25T00:22:21.214Z,0.00
2018-12-25T00:23:21.205Z,0.00
2018-12-25T00:24:21.189Z,0.00
2018-12-25T00:25:21.217Z,0.00
2018-12-25T00:26:21.174Z,0.00
2018-12-25T00:27:21.162Z,0.00
2018-12-25T00:28:21.143Z,0.00
2018-12-25T00:29:21.140Z,0.00
2018-12-25T00:30:21.124Z,0.00
2018-12-25T00:31:21.154Z,0.00
2018-12-25T00:32:21.118Z,0.00
2018-12-25T00:33:21.101Z,0.00
2018-12-25T00:34:21.088Z,0.00
2018-12-25T00:35:21.078Z,0.00
2018-12-25T00:36:21.097Z,0.00
2018-12-25T00:37:21.054Z,0.00
2018-12-25T00:38:21.053Z,0.00
2018-12-25T00:39:21.028Z,0.00
2018-12-25T00:40:21.026Z,0.00
2018-12-25T00:41:21.037Z,0.00
2018-12-25T00:42:20.999Z,0.00
2018-12-25T00:43:20.986Z,0.00
2018-12-25T00:44:20.988Z,0.00
2018-12-25T00:45:20.973Z,0.00
2018-12-25T00:46:20.984Z,0.00
2018-12-25T00:47:20.975Z,0.00
2018-12-25T00:48:20.936Z,0.00
2018-12-25T00:49:20.927Z,0.00
2018-12-25T00:50:20.975Z,0.00
2018-12-25T00:51:20.905Z,0.00
2018-12-25T00:52:20.921Z,0.00
2018-12-25T00:53:20.887Z,0.00
2018-12-25T00:54:20.878Z,0.00
2018-12-25T00:55:20.871Z,0.00
2018-12-25T00:56:20.850Z,0.00
2018-12-25T00:57:20.872Z,0.00
2018-12-25T00:58:20.838Z,0.00
2018-12-25T00:59:20.828Z,0.00
2018-12-25T01:00:20.810Z,0.00
2018-12-25T01:01:20.808Z,0.00
2018-12-25T01:02:20.787Z,0.00
2018-12-25T01:03:20.798Z,0.00
2018-12-25T01:04:20.774Z,0.00
2018-12-25T01:05:20.763Z,0.00
2018-12-25T01:06:20.767Z,0.00
2018-12-25T01:07:20.737Z,0.00
2018-12-25T01:08:20.755Z,0.00
2018-12-25T01:09:20.720Z,0.00
2018-12-25T01:10:20.710Z,0.00
2018-12-25T01:11:20.700Z,0.00
2018-12-25T01:12:20.684Z,0.00
2018-12-25T01:13:20.697Z,0.00
2018-12-25T01:14:20.669Z,0.00
2018-12-25T01:15:20.658Z,0.00
2018-12-25T01:16:20.642Z,0.00
2018-12-25T01:17:20.631Z,0.00
2018-12-25T01:18:20.641Z,0.00
2018-12-25T01:19:23.393Z,0.00
2018-12-25T01:20:20.609Z,0.00
2018-12-25T01:21:20.595Z,0.00
2018-12-25T01:22:20.589Z,0.00
2018-12-25T01:23:20.605Z,0.00
2018-12-25T01:24:20.557Z,0.00
2018-12-25T01:25:20.553Z,0.00
2018-12-25T01:26:20.542Z,0.00
2018-12-25T01:27:20.525Z,0.00
2018-12-25T01:28:20.520Z,0.00
2018-12-25T01:29:20.539Z,0.00
2018-12-25T01:30:20.499Z,0.00
2018-12-25T01:31:20.484Z,0.00
2018-12-25T01:32:20.481Z,0.00
2018-12-25T01:33:20.468Z,0.00
2018-12-25T01:34:20.481Z,0.00
2018-12-25T01:35:20.454Z,0.00
2018-12-25T01:36:20.431Z,0.00
2018-12-25T01:37:20.428Z,0.00
2018-12-25T01:38:20.414Z,0.00
2018-12-25T01:39:20.438Z,0.00
2018-12-25T01:40:20.400Z,0.00
2018-12-25T01:41:20.410Z,0.00
2018-12-25T01:42:20.375Z,0.00
2018-12-25T01:43:20.364Z,0.00
2018-12-25T01:44:20.348Z,0.00
2018-12-25T01:45:20.338Z,0.00
2018-12-25T01:46:20.360Z,0.00
2018-12-25T01:47:20.323Z,0.00
2018-12-25T01:48:20.309Z,0.00
2018-12-25T01:49:20.298Z,0.00
2018-12-25T01:50:20.285Z,0.00
2018-12-25T01:51:20.273Z,0.00
2018-12-25T01:52:20.294Z,0.00
2018-12-25T01:53:20.267Z,0.00
2018-12-25T01:54:20.250Z,0.00
2018-12-25T01:55:20.241Z,0.00
2018-12-25T01:56:20.222Z,0.00
2018-12-25T01:57:20.251Z,0.00
2018-12-25T01:58:20.199Z,0.00
2018-12-25T01:59:20.189Z,0.00
2018-12-25T02:00:20.188Z,0.00
2018-12-25T02:01:20.176Z,0.00
2018-12-25T02:02:20.179Z,0.00
2018-12-25T02:03:20.150Z,0.00
2018-12-25T02:04:20.147Z,0.00
2018-12-25T02:05:20.134Z,0.00
2018-12-25T02:06:20.132Z,0.00
2018-12-25T02:07:20.146Z,0.00
2018-12-25T02:08:20.096Z,0.00
2018-12-25T02:09:20.088Z,0.00
2018-12-25T02:10:20.075Z,0.00
2018-12-25T02:11:20.065Z,0.00
2018-12-25T02:12:20.071Z,0.00
2018-12-25T02:13:20.078Z,0.00
2018-12-25T02:14:20.039Z,0.00
2018-12-25T02:15:20.028Z,0.00
2018-12-25T02:16:20.014Z,0.00
2018-12-25T02:17:20.002Z,0.00
2018-12-25T02:18:20.017Z,0.00
2018-12-25T02:19:19.986Z,0.00
2018-12-25T02:20:19.969Z,0.00
2018-12-25T02:21:19.956Z,0.00
2018-12-25T02:22:19.946Z,0.00
2018-12-25T02:23:19.958Z,0.00
2018-12-25T02:24:19.936Z,0.00
2018-12-25T02:25:19.924Z,0.00
2018-12-25T02:26:19.913Z,0.00
2018-12-25T02:27:19.904Z,0.00
2018-12-25T02:28:19.925Z,0.00
2018-12-25T02:29:19.877Z,0.00
2018-12-25T02:30:19.870Z,0.00
2018-12-25T02:31:19.854Z,0.00
2018-12-25T02:32:19.849Z,0.00
2018-12-25T02:33:19.837Z,0.00
2018-12-25T02:34:19.844Z,0.00
2018-12-25T02:35:19.815Z,0.00
2018-12-25T02:36:19.805Z,0.00
2018-12-25T02:37:19.797Z,0.00
2018-12-25T02:38:19.783Z,0.00
2018-12-25T02:39:19.791Z,0.00
2018-12-25T02:40:19.773Z,0.00
2018-12-25T02:41:19.752Z,0.00
2018-12-25T02:42:19.738Z,0.00
2018-12-25T02:43:19.723Z,0.00
2018-12-25T02:44:19.743Z,0.00
2018-12-25T02:45:19.710Z,0.00
2018-12-25T02:46:19.702Z,0.00
2018-12-25T02:47:19.687Z,0.00
2018-12-25T02:48:19.687Z,0.00
2018-12-25T02:49:19.703Z,0.00
2018-12-25T02:50:19.657Z,0.00
2018-12-25T02:51:19.648Z,0.00
2018-12-25T02:52:19.629Z,0.00
2018-12-25T02:53:19.629Z,0.00
2018-12-25T02:54:19.614Z,0.00
2018-12-25T02:55:19.638Z,0.00
2018-12-25T02:56:19.608Z,0.00
2018-12-25T02:57:19.588Z,0.00
2018-12-25T02:58:19.574Z,0.00
2018-12-25T02:59:19.569Z,0.00
2018-12-25T03:00:19.551Z,0.00
2018-12-25T03:01:19.569Z,0.00
2018-12-25T03:02:19.546Z,0.00
2018-12-25T03:03:19.514Z,0.00
2018-12-25T03:04:19.511Z,0.00
2018-12-25T03:05:19.503Z,0.00
2018-12-25T03:06:19.483Z,0.00
2018-12-25T03:07:19.495Z,0.00
2018-12-25T03:08:19.470Z,0.00
2018-12-25T03:09:19.464Z,0.00
2018-12-25T03:10:19.449Z,0.00
2018-12-25T03:11:19.434Z,0.00
2018-12-25T03:12:19.444Z,0.00
2018-12-25T03:13:19.415Z,0.00
2018-12-25T03:14:19.398Z,0.00
2018-12-25T03:15:19.393Z,0.00
2018-12-25T03:16:19.382Z,0.00
2018-12-25T03:17:19.394Z,0.00
2018-12-25T03:18:19.361Z,0.00
2018-12-25T03:19:19.354Z,0.00
2018-12-25T03:20:19.332Z,0.00
2018-12-25T03:21:19.324Z,0.00
2018-12-25T03:22:19.342Z,0.00
2018-12-25T03:23:19.309Z,0.00
2018-12-25T03:24:19.293Z,0.00
2018-12-25T03:25:19.282Z,0.00
2018-12-25T03:26:19.452Z,0.00
2018-12-25T03:27:19.286Z,0.00
2018-12-25T03:28:19.270Z,0.00
2018-12-25T03:29:19.239Z,0.00
2018-12-25T03:30:19.227Z,0.00
2018-12-25T03:31:19.226Z,0.00
2018-12-25T03:32:19.217Z,0.00
2018-12-25T03:33:19.221Z,0.00
2018-12-25T03:34:19.197Z,0.00
2018-12-25T03:35:19.180Z,0.00
2018-12-25T03:36:19.170Z,0.00
2018-12-25T03:37:19.156Z,0.00
2018-12-25T03:38:19.182Z,0.00
2018-12-25T03:39:19.134Z,0.00
2018-12-25T03:40:19.119Z,0.00
2018-12-25T03:41:19.109Z,0.00
2018-12-25T03:42:19.099Z,0.00
2018-12-25T03:43:19.085Z,0.00
2018-12-25T03:44:19.105Z,0.00
2018-12-25T03:45:19.073Z,0.00
2018-12-25T03:46:19.065Z,0.00
2018-12-25T03:47:19.051Z,0.00
2018-12-25T03:48:19.060Z,0.00
2018-12-25T03:49:19.022Z,0.00
2018-12-25T03:50:19.046Z,0.00
2018-12-25T03:51:19.008Z,0.00
2018-12-25T03:52:19.021Z,0.00
2018-12-25T03:53:18.987Z,0.00
2018-12-25T03:54:18.973Z,0.00
2018-12-25T03:55:18.958Z,0.00
2018-12-25T03:56:18.976Z,0.00
2018-12-25T03:57:18.947Z,0.00
2018-12-25T03:58:18.947Z,0.00
2018-12-25T03:59:18.922Z,0.00
2018-12-25T04:00:18.928Z,0.00
2018-12-25T04:01:18.907Z,0.00
2018-12-25T04:02:18.897Z,0.00
2018-12-25T04:03:18.875Z,0.00
2018-12-25T04:04:18.870Z,0.00
2018-12-25T04:05:18.891Z,0.00
2018-12-25T04:06:18.863Z,0.00
2018-12-25T04:07:18.838Z,0.00
2018-12-25T04:08:18.834Z,0.00
2018-12-25T04:09:18.819Z,0.00
2018-12-25T04:10:18.805Z,0.00
2018-12-25T04:11:18.821Z,0.00
2018-12-25T04:12:18.796Z,0.00
2018-12-25T04:13:18.769Z,0.00
2018-12-25T04:14:18.758Z,0.00
2018-12-25T04:15:18.766Z,0.00
2018-12-25T04:16:18.746Z,0.00
2018-12-25T04:17:18.728Z,0.00
2018-12-25T04:18:18.722Z,0.00
2018-12-25T04:19:18.709Z,0.00
2018-12-25T04:20:19.962Z,0.00
2018-12-25T04:21:18.682Z,0.00
2018-12-25T04:22:18.683Z,0.00
2018-12-25T04:23:18.660Z,0.00
2018-12-25T04:24:18.653Z,0.00
2018-12-25T04:25:18.675Z,0.00
2018-12-25T04:26:18.639Z,0.00
2018-12-25T04:27:18.622Z,0.00
2018-12-25T04:28:18.610Z,0.00
2018-12-25T04:29:18.605Z,0.00
2018-12-25T04:30:18.592Z,0.00
2018-12-25T04:31:18.617Z,0.00
2018-12-25T04:32:18.563Z,0.00
2018-12-25T04:33:18.554Z,0.00
2018-12-25T04:34:18.544Z,0.00
2018-12-25T04:35:18.528Z,0.00
2018-12-25T04:36:18.522Z,0.00
2018-12-25T04:37:18.565Z,0.00
2018-12-25T04:38:18.503Z,0.00
2018-12-25T04:39:18.493Z,0.00
2018-12-25T04:40:18.477Z,0.00
2018-12-25T04:41:18.481Z,0.00
2018-12-25T04:42:18.462Z,0.00
2018-12-25T04:43:18.474Z,0.00
2018-12-25T04:44:18.436Z,0.00
2018-12-25T04:45:18.428Z,0.00
2018-12-25T04:46:18.412Z,0.00
2018-12-25T04:47:18.398Z,0.00
2018-12-25T04:48:18.416Z,0.00
2018-12-25T04:49:18.389Z,0.00
2018-12-25T04:50:18.374Z,0.00
2018-12-25T04:51:18.361Z,0.00
2018-12-25T04:52:18.351Z,0.00
2018-12-25T04:53:18.368Z,0.00
2018-12-25T04:54:18.326Z,0.00
2018-12-25T04:55:18.320Z,0.00
2018-12-25T04:56:18.308Z,0.00
2018-12-25T04:57:18.302Z,0.00
2018-12-25T04:58:18.282Z,0.00
2018-12-25T04:59:18.289Z,0.00
2018-12-25T05:00:18.266Z,0.00
2018-12-25T05:01:18.255Z,0.00
2018-12-25T05:02:18.245Z,0.00
2018-12-25T05:03:18.255Z,0.00
2018-12-25T05:04:18.221Z,0.00
2018-12-25T05:05:18.214Z,0.00
2018-12-25T05:06:18.198Z,0.00
2018-12-25T05:07:18.184Z,0.00
2018-12-25T05:08:18.211Z,0.00
2018-12-25T05:09:18.173Z,0.00
2018-12-25T05:10:18.181Z,0.00
2018-12-25T05:11:18.152Z,0.00
2018-12-25T05:12:18.133Z,0.00
2018-12-25T05:13:18.122Z,0.00
2018-12-25T05:14:18.139Z,0.00
2018-12-25T05:15:18.105Z,0.00
2018-12-25T05:16:18.087Z,0.00
2018-12-25T05:17:18.080Z,0.00
2018-12-25T05:18:18.074Z,0.00
2018-12-25T05:19:18.083Z,0.00
2018-12-25T05:20:18.051Z,0.00
2018-12-25T05:21:18.045Z,0.00
2018-12-25T05:22:18.033Z,0.00
2018-12-25T05:23:18.021Z,0.00
2018-12-25T05:24:18.044Z,0.00
2018-12-25T05:25:17.991Z,0.00
2018-12-25T05:26:17.991Z,0.00
2018-12-25T05:27:17.977Z,0.00
2018-12-25T05:28:17.963Z,0.00
2018-12-25T05:29:17.957Z,0.00
2018-12-25T05:30:17.973Z,0.00
2018-12-25T05:31:17.925Z,0.00
2018-12-25T05:32:17.922Z,0.00
2018-12-25T05:33:17.914Z,0.00
2018-12-25T05:34:17.899Z,0.00
2018-12-25T05:35:17.888Z,0.00
2018-12-25T05:36:17.910Z,0.00
2018-12-25T05:37:17.861Z,0.00
2018-12-25T05:38:17.851Z,0.00
2018-12-25T05:39:17.844Z,0.00
2018-12-25T05:40:17.837Z,0.00
2018-12-25T05:41:17.827Z,0.00
2018-12-25T05:42:17.837Z,0.00
2018-12-25T05:43:17.804Z,0.00
2018-12-25T05:44:17.788Z,0.00
2018-12-25T05:45:17.779Z,0.00
2018-12-25T05:46:17.772Z,0.00
2018-12-25T05:47:17.795Z,0.00
2018-12-25T05:48:17.753Z,0.00
2018-12-25T05:49:17.735Z,0.00
2018-12-25T05:50:17.730Z,0.00
2018-12-25T05:51:17.717Z,0.00
2018-12-25T05:52:17.706Z,0.00
2018-12-25T05:53:17.719Z,0.00
2018-12-25T05:54:17.685Z,0.00
2018-12-25T05:55:19.470Z,0.00
2018-12-25T05:56:17.669Z,0.00
2018-12-25T05:57:17.647Z,0.00
2018-12-25T05:58:17.676Z,0.00
2018-12-25T05:59:17.628Z,0.00
2018-12-25T06:00:17.622Z,0.00
2018-12-25T06:01:17.611Z,0.00
2018-12-25T06:02:17.600Z,0.00
2018-12-25T06:03:17.587Z,0.00
2018-12-25T06:04:17.614Z,0.00
2018-12-25T06:05:17.572Z,0.00
2018-12-25T06:06:17.566Z,0.00
2018-12-25T06:07:17.547Z,0.00
2018-12-25T06:08:17.535Z,0.00
2018-12-25T06:09:17.521Z,0.00
2018-12-25T06:10:17.550Z,0.00
2018-12-25T06:11:17.502Z,0.00
2018-12-25T06:12:17.495Z,0.00
2018-12-25T06:13:17.485Z,0.00
2018-12-25T06:14:17.473Z,0.00
2018-12-25T06:15:17.460Z,0.00
2018-12-25T06:16:17.488Z,0.00
2018-12-25T06:17:17.438Z,0.00
2018-12-25T06:18:17.435Z,0.00
2018-12-25T06:19:17.420Z,0.00
2018-12-25T06:20:17.405Z,0.00
2018-12-25T06:21:17.391Z,0.00
2018-12-25T06:22:17.413Z,0.00
2018-12-25T06:23:17.375Z,0.00
2018-12-25T06:24:17.366Z,0.00
2018-12-25T06:25:17.358Z,0.00
2018-12-25T06:26:17.347Z,0.00
2018-12-25T06:27:17.339Z,0.00
2018-12-25T06:28:17.338Z,0.00
2018-12-25T06:29:17.307Z,0.00
2018-12-25T06:30:17.300Z,0.00
2018-12-25T06:31:17.305Z,0.00
2018-12-25T06:32:17.283Z,0.00
2018-12-25T06:33:17.270Z,0.00
2018-12-25T06:34:17.286Z,0.00
2018-12-25T06:35:17.245Z,0.00
2018-12-25T06:36:17.236Z,0.00
2018-12-25T06:37:17.224Z,0.00
2018-12-25T06:38:17.215Z,0.00
2018-12-25T06:39:17.206Z,0.00
2018-12-25T06:40:17.220Z,0.00
2018-12-25T06:41:17.177Z,0.00
2018-12-25T06:42:17.167Z,0.00
2018-12-25T06:43:17.157Z,0.00
2018-12-25T06:44:17.150Z,0.00
2018-12-25T06:45:17.149Z,0.00
2018-12-25T06:46:17.161Z,0.00
2018-12-25T06:47:17.118Z,0.00
2018-12-25T06:48:17.103Z,0.00
2018-12-25T06:49:17.095Z,0.00
2018-12-25T06:50:17.090Z,0.00
2018-12-25T06:51:17.074Z,0.00
2018-12-25T06:52:17.089Z,4.00
2018-12-25T06:53:17.057Z,4.00
2018-12-25T06:54:17.036Z,4.00
2018-12-25T06:55:17.029Z,4.00
2018-12-25T06:56:17.025Z,4.00
2018-12-25T06:57:17.014Z,4.00
2018-12-25T06:58:17.035Z,8.00
2018-12-25T06:59:17.001Z,4.00
2018-12-25T07:00:16.971Z,8.00
2018-12-25T07:01:16.963Z,4.00
2018-12-25T07:02:16.958Z,4.00
2018-12-25T07:03:16.941Z,8.00
2018-12-25T07:04:16.963Z,8.00
2018-12-25T07:05:16.923Z,8.00
2018-12-25T07:06:16.906Z,12.00
2018-12-25T07:07:16.926Z,16.00
2018-12-25T07:08:16.895Z,12.00
2018-12-25T07:09:16.882Z,12.00
2018-12-25T07:10:16.870Z,12.00
2018-12-25T07:11:16.858Z,16.00
2018-12-25T07:12:16.863Z,20.00
2018-12-25T07:13:16.833Z,20.00
2018-12-25T07:14:16.822Z,20.00
2018-12-25T07:15:16.812Z,20.00
2018-12-25T07:16:16.828Z,20.00
2018-12-25T07:17:16.796Z,20.00
2018-12-25T07:18:16.815Z,20.00
2018-12-25T07:19:16.776Z,16.00
2018-12-25T07:20:16.770Z,20.00
2018-12-25T07:21:16.747Z,20.00
2018-12-25T07:22:16.743Z,24.00
2018-12-25T07:23:16.731Z,28.00
2018-12-25T07:24:16.736Z,32.00
2018-12-25T07:25:16.703Z,32.00
2018-12-25T07:26:16.690Z,36.00
2018-12-25T07:27:16.703Z,44.00
2018-12-25T07:28:16.678Z,36.00
2018-12-25T07:29:16.668Z,40.00
2018-12-25T07:30:16.656Z,52.00
2018-12-25T07:31:16.664Z,68.00
2018-12-25T07:32:16.629Z,60.00
2018-12-25T07:33:16.620Z,56.00
2018-12-25T07:34:16.608Z,44.00
2018-12-25T07:35:16.595Z,48.00
2018-12-25T07:36:16.617Z,48.00
2018-12-25T07:37:16.605Z,80.00
2018-12-25T07:38:16.564Z,76.00
2018-12-25T07:39:16.557Z,60.00
2018-12-25T07:40:16.554Z,56.00
2018-12-25T07:41:16.597Z,72.00
2018-12-25T07:42:16.530Z,100.00
2018-12-25T07:43:16.519Z,116.00
2018-12-25T07:44:16.501Z,84.00
2018-12-25T07:45:16.496Z,76.00
2018-12-25T07:46:16.481Z,80.00
2018-12-25T07:47:16.501Z,88.00
2018-12-25T07:48:16.468Z,112.00
2018-12-25T07:49:16.482Z,132.00
2018-12-25T07:50:16.446Z,148.00
2018-12-25T07:51:20.748Z,148.00
2018-12-25T07:52:16.415Z,140.00
2018-12-25T07:53:16.440Z,148.00
2018-12-25T07:54:16.410Z,152.00
2018-12-25T07:55:16.395Z,196.00
2018-12-25T07:56:16.373Z,232.00
2018-12-25T07:57:16.369Z,192.00
2018-12-25T07:58:16.355Z,180.00
2018-12-25T07:59:16.363Z,168.00
2018-12-25T08:00:16.344Z,228.00
2018-12-25T08:01:16.330Z,224.00
2018-12-25T08:02:16.318Z,184.00
2018-12-25T08:03:16.307Z,200.00
2018-12-25T08:04:16.331Z,216.00
2018-12-25T08:05:16.278Z,268.00
2018-12-25T08:06:16.268Z,284.00
2018-12-25T08:07:16.259Z,232.00
2018-12-25T08:08:16.253Z,300.00
2018-12-25T08:09:16.244Z,228.00
2018-12-25T08:10:16.261Z,320.00
2018-12-25T08:11:16.290Z,272.00
2018-12-25T08:12:16.213Z,280.00
2018-12-25T08:13:16.199Z,268.00
2018-12-25T08:14:16.189Z,244.00
2018-12-25T08:15:16.181Z,272.00
2018-12-25T08:16:16.197Z,292.00
2018-12-25T08:17:16.153Z,264.00
2018-12-25T08:18:16.145Z,312.00
2018-12-25T08:19:16.132Z,276.00
2018-12-25T08:20:16.128Z,352.00
2018-12-25T08:21:16.116Z,372.00
2018-12-25T08:22:16.130Z,388.00
2018-12-25T08:23:16.094Z,432.00
2018-12-25T08:24:16.079Z,536.00
2018-12-25T08:25:16.070Z,528.00
2018-12-25T08:26:16.068Z,528.00
2018-12-25T08:27:16.080Z,520.00
2018-12-25T08:28:16.038Z,600.00
2018-12-25T08:29:16.027Z,480.00
2018-12-25T08:30:16.094Z,572.00
2018-12-25T08:31:16.070Z,564.00
2018-12-25T08:32:16.004Z,544.00
2018-12-25T08:33:15.988Z,464.00
2018-12-25T08:34:15.981Z,524.00
2018-12-25T08:35:16.019Z,596.00
2018-12-25T08:36:15.953Z,512.00
2018-12-25T08:37:15.939Z,432.00
2018-12-25T08:38:15.928Z,400.00
2018-12-25T08:39:15.919Z,360.00
2018-12-25T08:40:15.931Z,608.00
2018-12-25T08:41:15.990Z,944.00
2018-12-25T08:42:15.886Z,1204.00
2018-12-25T08:43:15.876Z,1140.00
2018-12-25T08:44:15.871Z,1328.00
2018-12-25T08:45:15.861Z,1164.00
2018-12-25T08:46:15.854Z,784.00
2018-12-25T08:47:15.874Z,688.00
2018-12-25T08:48:23.892Z,844.00
2018-12-25T08:49:15.814Z,928.00
2018-12-25T08:50:15.811Z,836.00
2018-12-25T08:51:15.797Z,816.00
2018-12-25T08:52:15.785Z,792.00
2018-12-25T08:53:15.912Z,816.00
2018-12-25T08:54:15.762Z,1128.00
2018-12-25T08:55:15.788Z,1020.00
2018-12-25T08:56:15.749Z,972.00
2018-12-25T08:57:15.734Z,1104.00
2018-12-25T08:58:15.721Z,1676.00
2018-12-25T08:59:15.707Z,1832.00
2018-12-25T09:00:15.694Z,1312.00
2018-12-25T09:01:15.717Z,872.00
2018-12-25T09:02:15.681Z,604.00
2018-12-25T09:03:15.667Z,524.00
2018-12-25T09:04:15.661Z,856.00
2018-12-25T09:05:15.649Z,908.00
2018-12-25T09:06:15.677Z,748.00
2018-12-25T09:07:15.619Z,876.00
2018-12-25T09:08:15.611Z,1260.00
2018-12-25T09:09:15.600Z,1348.00
2018-12-25T09:10:15.595Z,1284.00
2018-12-25T09:11:15.584Z,1104.00
2018-12-25T09:12:15.591Z,816.00
2018-12-25T09:13:15.556Z,1012.00
2018-12-25T09:14:15.556Z,992.00
2018-12-25T09:15:15.540Z,948.00
2018-12-25T09:16:15.536Z,1096.00
2018-12-25T09:17:15.539Z,1368.00
2018-12-25T09:18:16.482Z,1568.00
2018-12-25T09:19:15.492Z,1424.00
2018-12-25T09:20:15.480Z,1660.00
2018-12-25T09:21:15.476Z,1552.00
2018-12-25T09:22:15.497Z,1436.00
2018-12-25T09:23:15.453Z,1316.00
2018-12-25T09:24:15.441Z,1060.00
2018-12-25T09:25:15.435Z,1540.00
2018-12-25T09:26:15.435Z,1200.00
2018-12-25T09:27:15.406Z,1228.00
2018-12-25T09:28:15.430Z,1356.00
2018-12-25T09:29:15.390Z,1532.00
2018-12-25T09:30:15.373Z,1552.00
2018-12-25T09:31:15.366Z,1472.00
2018-12-25T09:32:15.357Z,1236.00
2018-12-25T09:33:15.341Z,1964.00
2018-12-25T09:34:15.357Z,1856.00
2018-12-25T09:35:15.327Z,2120.00
2018-12-25T09:36:15.309Z,2468.00
2018-12-25T09:37:15.396Z,2164.00
2018-12-25T09:38:15.293Z,2332.00
2018-12-25T09:39:15.315Z,1824.00
2018-12-25T09:40:15.273Z,1528.00
2018-12-25T09:41:15.261Z,1828.00
2018-12-25T09:42:15.245Z,2440.00
2018-12-25T09:43:15.234Z,2536.00
2018-12-25T09:44:15.251Z,2248.00
2018-12-25T09:45:15.250Z,2564.00
2018-12-25T09:46:15.203Z,2652.00
2018-12-25T09:47:15.189Z,2780.00
2018-12-25T09:48:15.179Z,2716.00
2018-12-25T09:49:15.168Z,2704.00
2018-12-25T09:50:15.167Z,2600.00
2018-12-25T09:51:15.174Z,2296.00
2018-12-25T09:52:15.152Z,2440.00
2018-12-25T09:53:15.136Z,2012.00
2018-12-25T09:54:15.122Z,2660.00
2018-12-25T09:55:15.103Z,2688.00
2018-12-25T09:56:15.127Z,2692.00
2018-12-25T09:57:15.087Z,2652.00
2018-12-25T09:58:15.078Z,2712.00
2018-12-25T09:59:15.074Z,2700.00
2018-12-25T10:00:15.053Z,2752.00
2018-12-25T10:01:15.036Z,2364.00
2018-12-25T10:02:15.090Z,2724.00
2018-12-25T10:03:15.033Z,2888.00
2018-12-25T10:04:15.014Z,2776.00
2018-12-25T10:05:15.005Z,3256.00
2018-12-25T10:06:14.993Z,2604.00
2018-12-25T10:07:15.003Z,2672.00
2018-12-25T10:08:14.996Z,3020.00
2018-12-25T10:09:14.953Z,2672.00
2018-12-25T10:10:14.950Z,1984.00
2018-12-25T10:11:15.045Z,2992.00
2018-12-25T10:12:14.928Z,3040.00
2018-12-25T10:13:14.916Z,2672.00
2018-12-25T10:14:14.935Z,2248.00
2018-12-25T10:15:14.887Z,2272.00
2018-12-25T10:16:14.901Z,2092.00
2018-12-25T10:17:14.878Z,1976.00
2018-12-25T10:18:14.856Z,2164.00
2018-12-25T10:19:14.843Z,3004.00
2018-12-25T10:20:14.855Z,3540.00
2018-12-25T10:21:14.824Z,3016.00
2018-12-25T10:22:14.846Z,2524.00
2018-12-25T10:23:14.817Z,2028.00
2018-12-25T10:24:14.799Z,2000.00
2018-12-25T10:25:14.787Z,1940.00
2018-12-25T10:26:14.772Z,1764.00
2018-12-25T10:27:14.759Z,1252.00
2018-12-25T10:28:14.790Z,1676.00
2018-12-25T10:29:14.738Z,2016.00
2018-12-25T10:30:14.731Z,1600.00
2018-12-25T10:31:14.759Z,1356.00
2018-12-25T10:32:14.708Z,1280.00
2018-12-25T10:33:14.695Z,1308.00
2018-12-25T10:34:14.687Z,1548.00
2018-12-25T10:35:14.675Z,1480.00
2018-12-25T10:36:14.667Z,1652.00
2018-12-25T10:37:14.689Z,1636.00
2018-12-25T10:38:14.643Z,1532.00
2018-12-25T10:39:14.628Z,1332.00
2018-12-25T10:40:14.618Z,1088.00
2018-12-25T10:41:14.610Z,2908.00
2018-12-25T10:42:14.603Z,4076.00
2018-12-25T10:43:14.682Z,3640.00
2018-12-25T10:44:14.581Z,2464.00
2018-12-25T10:45:14.573Z,3088.00
2018-12-25T10:46:14.555Z,2420.00
2018-12-25T10:47:14.541Z,1672.00
2018-12-25T10:48:14.539Z,1192.00
2018-12-25T10:49:14.551Z,1872.00
2018-12-25T10:50:14.509Z,2200.00
2018-12-25T10:51:14.500Z,1840.00
2018-12-25T10:52:14.491Z,1700.00
2018-12-25T10:53:14.480Z,1288.00
2018-12-25T10:54:14.504Z,2320.00
2018-12-25T10:55:14.463Z,1744.00
2018-12-25T10:56:14.461Z,1252.00
2018-12-25T10:57:14.444Z,1344.00
2018-12-25T10:58:14.426Z,1680.00
2018-12-25T10:59:14.413Z,1304.00
2018-12-25T11:00:14.441Z,1736.00
2018-12-25T11:01:14.398Z,1456.00
2018-12-25T11:02:14.392Z,1400.00
2018-12-25T11:03:14.378Z,2012.00
2018-12-25T11:04:14.360Z,1700.00
2018-12-25T11:05:14.357Z,1836.00
2018-12-25T11:06:14.379Z,2076.00
2018-12-25T11:07:14.340Z,2336.00
2018-12-25T11:08:14.327Z,1832.00
2018-12-25T11:09:14.319Z,2148.00
2018-12-25T11:10:14.301Z,1628.00
2018-12-25T11:11:14.288Z,968.00
2018-12-25T11:12:14.314Z,1204.00
2018-12-25T11:13:14.269Z,1400.00
2018-12-25T11:14:14.263Z,2592.00
2018-12-25T11:15:14.251Z,4124.00
2018-12-25T11:16:14.242Z,3804.00
2018-12-25T11:17:14.254Z,2132.00
2018-12-25T11:18:14.216Z,3228.00
2018-12-25T11:19:14.204Z,2580.00
2018-12-25T11:20:14.206Z,2084.00
2018-12-25T11:21:14.221Z,2628.00
2018-12-25T11:22:19.777Z,2404.00
2018-12-25T11:23:15.167Z,2636.00
2018-12-25T11:24:14.149Z,3248.00
2018-12-25T11:25:14.141Z,2988.00
2018-12-25T11:26:14.135Z,2484.00
2018-12-25T11:27:14.145Z,2660.00
2018-12-25T11:28:14.117Z,1788.00
2018-12-25T11:29:14.105Z,2016.00
2018-12-25T11:30:14.089Z,1892.00
2018-12-25T11:31:14.094Z,1740.00
2018-12-25T11:32:14.097Z,1780.00
2018-12-25T11:33:14.054Z,1784.00
2018-12-25T11:34:14.051Z,1636.00
2018-12-25T11:35:14.039Z,1864.00
2018-12-25T11:36:14.023Z,1692.00
2018-12-25T11:37:14.012Z,1704.00
2018-12-25T11:38:14.040Z,2036.00
2018-12-25T11:39:13.997Z,1924.00
2018-12-25T11:40:14.003Z,1584.00
2018-12-25T11:41:13.976Z,1676.00
2018-12-25T11:42:13.959Z,1964.00
2018-12-25T11:43:13.948Z,2252.00
2018-12-25T11:44:13.959Z,1960.00
2018-12-25T11:45:13.942Z,1840.00
2018-12-25T11:46:13.923Z,1840.00
2018-12-25T11:47:13.940Z,2076.00
2018-12-25T11:48:13.900Z,2152.00
2018-12-25T11:49:13.919Z,1940.00
2018-12-25T11:50:13.878Z,1520.00
2018-12-25T11:51:13.873Z,1256.00
2018-12-25T11:52:13.859Z,1244.00
2018-12-25T11:53:13.848Z,1324.00
2018-12-25T11:54:13.859Z,1448.00
2018-12-25T11:55:13.824Z,1708.00
2018-12-25T11:56:13.817Z,1648.00
2018-12-25T11:57:13.799Z,1464.00
2018-12-25T11:58:13.795Z,1712.00
2018-12-25T11:59:13.813Z,1768.00
2018-12-25T12:00:13.774Z,1600.00
2018-12-25T12:01:13.763Z,1516.00
2018-12-25T12:02:17.236Z,1756.00
2018-12-25T12:03:13.736Z,1932.00
2018-12-25T12:04:13.731Z,1840.00
2018-12-25T12:05:13.741Z,1656.00
2018-12-25T12:06:13.709Z,1536.00
2018-12-25T12:07:13.697Z,1632.00
2018-12-25T12:08:13.692Z,1780.00
2018-12-25T12:09:13.670Z,2040.00
2018-12-25T12:10:13.667Z,2464.00
2018-12-25T12:11:13.677Z,2368.00
2018-12-25T12:12:13.646Z,2356.00
2018-12-25T12:13:13.635Z,2508.00
2018-12-25T12:14:13.619Z,2280.00
2018-12-25T12:15:13.642Z,2656.00
2018-12-25T12:16:13.599Z,2516.00
2018-12-25T12:17:13.587Z,2360.00
2018-12-25T12:18:13.580Z,2328.00
2018-12-25T12:19:13.577Z,2364.00
2018-12-25T12:20:13.565Z,2208.00
2018-12-25T12:21:13.575Z,2076.00
2018-12-25T12:22:13.532Z,2064.00
2018-12-25T12:23:13.526Z,2076.00
2018-12-25T12:24:13.517Z,1816.00
2018-12-25T12:25:13.535Z,1688.00
2018-12-25T12:26:13.494Z,1492.00
2018-12-25T12:27:13.479Z,1544.00
2018-12-25T12:28:13.469Z,1484.00
2018-12-25T12:29:13.459Z,1452.00
2018-12-25T12:30:13.477Z,1508.00
2018-12-25T12:31:13.440Z,1724.00
2018-12-25T12:32:13.434Z,1800.00
2018-12-25T12:33:15.475Z,1832.00
2018-12-25T12:34:13.425Z,1640.00
2018-12-25T12:35:13.402Z,1876.00
2018-12-25T12:36:13.391Z,1716.00
2018-12-25T12:37:13.376Z,1480.00
2018-12-25T12:38:13.372Z,1384.00
2018-12-25T12:39:13.382Z,1356.00
2018-12-25T12:40:13.362Z,1308.00
2018-12-25T12:41:13.331Z,1392.00
2018-12-25T12:42:13.327Z,1752.00
2018-12-25T12:43:13.318Z,1920.00
2018-12-25T12:44:13.307Z,2084.00
2018-12-25T12:45:13.325Z,2152.00
2018-12-25T12:46:13.277Z,2208.00
2018-12-25T12:47:13.263Z,2272.00
2018-12-25T12:48:13.255Z,2156.00
2018-12-25T12:49:13.253Z,2052.00